»·PEaware :: N149CD KVNY-L26

N149CD :: KVNY-L26

FLIGHT INFORMATION

Flight Status: Arrived
Operator: Privately registered:
United States
More flights under this callsign
Pilot: Nathan E. (30132)
Aircraft: CESSNA 172 SKYHAWK
(C172)
More flights by this aircraft type
Origin: KVNY Van Nuys
United States
Destination: L26 Hesperia
United States
More flights between these airports :: More routes between these airports
Route: +ADAMM3 ADAM V186 ITSME V264 RRIZE V442 CAPTZ
File this flight plan on PilotEdge
Remarks:
Altitude:
(Current/Filed)
9,000ft
Speed:
(Current/Filed)
110kts
Departed: 27-Aug-20 11:55 AM
Arrived: 27-Aug-20 12:40 PM
Distance/Time
Traveled:
59nm/0:45
Distance/Time
To Go:
Arrived

Flight Plot

Page will automatically refresh every two minutes.

Flight plan parsing failed; only flown route is shown


Map Options




Map Legend


Flown Route
Filed Route
Departure Airport
Arrival Airport
Navaid (VOR, NDB)
Fix

Horizontal Profiles

Position Reports

Time Latitude Longitude Heading Altitude Ground
Speed
27-Aug-20 11:34 34.215503 -118.498557 2 806ft 0kts
27-Aug-20 11:35 34.215503 -118.498557 2 806ft 0kts
27-Aug-20 11:36 34.215503 -118.498557 2 806ft 0kts
27-Aug-20 11:37 34.215503 -118.498557 2 806ft 0kts
27-Aug-20 11:38 34.215503 -118.498557 2 806ft 0kts
27-Aug-20 11:39 34.215503 -118.498557 2 806ft 0kts
27-Aug-20 11:40 34.215503 -118.498557 2 806ft 0kts
27-Aug-20 11:41 34.215503 -118.498557 2 806ft 0kts
27-Aug-20 11:42 34.215503 -118.498557 2 806ft 0kts
27-Aug-20 11:43 34.215503 -118.498557 2 806ft 0kts
27-Aug-20 11:44 34.215503 -118.498557 2 806ft 0kts
27-Aug-20 11:45 34.215503 -118.498557 2 806ft 0kts
27-Aug-20 11:46 34.215503 -118.498557 2 806ft 0kts
27-Aug-20 11:47 34.215503 -118.498557 2 806ft 0kts
27-Aug-20 11:48 34.217386 -118.496522 46 806ft 12kts
27-Aug-20 11:49 34.217276 -118.492347 36 806ft 9kts
27-Aug-20 11:50 34.219027 -118.492160 99 806ft 0kts
27-Aug-20 11:51 34.219027 -118.492161 99 806ft 0kts
27-Aug-20 11:52 34.219027 -118.492161 99 806ft 0kts
27-Aug-20 11:53 34.218243 -118.491170 176 806ft 17kts
27-Aug-20 11:54 34.200612 -118.489418 174 1295ft 71kts
27-Aug-20 11:55 34.182321 -118.482329 127 2089ft 74kts
27-Aug-20 11:56 34.171975 -118.460387 124 2823ft 75kts
27-Aug-20 11:57 34.161870 -118.438025 124 3515ft 76kts
27-Aug-20 11:58 34.151917 -118.415321 124 4170ft 77kts
27-Aug-20 11:59 34.148518 -118.389572 90 4789ft 84kts
27-Aug-20 12:00 34.152732 -118.361363 88 5372ft 86kts
27-Aug-20 12:01 34.156500 -118.332828 91 5921ft 86kts
27-Aug-20 12:02 34.155355 -118.304897 111 6446ft 82kts
27-Aug-20 12:03 34.150696 -118.278013 111 6957ft 82kts
27-Aug-20 12:04 34.144249 -118.245871 111 7015ft 109kts
27-Aug-20 12:05 34.136635 -118.211411 112 7022ft 104kts
27-Aug-20 12:06 34.128749 -118.182253 117 7522ft 83kts
27-Aug-20 12:07 34.119545 -118.151416 108 7798ft 102kts
27-Aug-20 12:08 34.109906 -118.119077 110 8256ft 102kts
27-Aug-20 12:09 34.100193 -118.086643 113 8693ft 103kts
27-Aug-20 12:10 34.090082 -118.053665 114 9024ft 113kts
27-Aug-20 12:11 34.078042 -118.014567 113 9027ft 128kts
27-Aug-20 12:12 34.066214 -117.974784 98 9028ft 125kts
27-Aug-20 12:13 34.074060 -117.935140 75 9035ft 122kts
27-Aug-20 12:14 34.075466 -117.894195 88 9046ft 124kts
27-Aug-20 12:15 34.076480 -117.851784 87 9051ft 127kts
27-Aug-20 12:16 34.077571 -117.809111 88 9052ft 127kts
27-Aug-20 12:17 34.078651 -117.766564 89 9049ft 127kts
27-Aug-20 12:18 34.079716 -117.723920 90 9046ft 127kts
27-Aug-20 12:19 34.080779 -117.681252 91 9043ft 126kts
27-Aug-20 12:20 34.081817 -117.639044 92 9040ft 125kts
27-Aug-20 12:22 34.082836 -117.597031 93 9036ft 124kts
27-Aug-20 12:23 34.083820 -117.555251 92 9038ft 124kts
27-Aug-20 12:24 34.084811 -117.513190 91 9040ft 125kts
27-Aug-20 12:25 34.085795 -117.470788 90 9042ft 126kts
27-Aug-20 12:26 34.091567 -117.430190 41 9045ft 123kts
27-Aug-20 12:27 34.119877 -117.408962 19 9046ft 119kts
27-Aug-20 12:28 34.149241 -117.391157 18 9047ft 118kts
27-Aug-20 12:29 34.178628 -117.373454 18 9047ft 117kts
27-Aug-20 12:30 34.207757 -117.355898 18 9048ft 117kts
27-Aug-20 12:31 34.238486 -117.344171 2 8819ft 121kts
27-Aug-20 12:32 34.272635 -117.337235 2 8316ft 125kts
27-Aug-20 12:33 34.305090 -117.327586 0 7945ft 113kts
27-Aug-20 12:34 34.334703 -117.314343 69 6941ft 131kts
27-Aug-20 12:35 34.314365 -117.299389 241 5920ft 109kts
27-Aug-20 12:36 34.333637 -117.316239 354 4915ft 116kts
27-Aug-20 12:36 34.358025 -117.309743 47 4435ft 105kts
27-Aug-20 12:38 34.382421 -117.287366 326 4191ft 87kts
27-Aug-20 12:39 34.385223 -117.308049 227 3510ft 66kts
27-Aug-20 12:39 34.376424 -117.316423 219 3371ft 18kts
27-Aug-20 12:41 34.376001 -117.316263 93 3367ft 0kts

Navigation Log

Ident Type
Flight plan parsing failed, navigation log unavailable